createdAt,value
2019-04-07T00:02:04.525Z,12.00
2019-04-07T00:04:31.769Z,14.80
2019-04-07T00:06:58.802Z,12.43
2019-04-07T00:09:25.846Z,11.30
2019-04-07T00:11:53.503Z,11.50
2019-04-07T00:14:20.690Z,11.77
2019-04-07T00:16:47.524Z,11.27
2019-04-07T00:19:14.247Z,12.43
2019-04-07T00:21:41.045Z,13.57
2019-04-07T00:24:07.831Z,13.37
2019-04-07T00:26:34.573Z,11.50
2019-04-07T00:29:01.668Z,12.03
2019-04-07T00:31:28.928Z,11.90
2019-04-07T00:33:55.696Z,10.87
2019-04-07T00:36:22.950Z,12.17
2019-04-07T00:38:50.361Z,12.37
2019-04-07T00:41:17.238Z,11.70
2019-04-07T00:43:44.534Z,14.07
2019-04-07T00:46:11.675Z,11.67
2019-04-07T00:48:38.657Z,12.20
2019-04-07T00:51:05.470Z,11.63
2019-04-07T00:53:32.236Z,15.10
2019-04-07T00:55:59.442Z,11.70
2019-04-07T00:58:26.195Z,13.80
2019-04-07T01:00:53.035Z,12.53
2019-04-07T01:03:20.407Z,10.53
2019-04-07T01:05:47.122Z,11.13
2019-04-07T01:08:13.996Z,11.50
2019-04-07T01:10:40.750Z,11.97
2019-04-07T01:13:07.703Z,12.07
2019-04-07T01:15:35.188Z,12.97
2019-04-07T01:18:02.657Z,12.33
2019-04-07T01:20:29.623Z,12.80
2019-04-07T01:22:56.387Z,13.37
2019-04-07T01:25:23.476Z,12.23
2019-04-07T01:27:51.238Z,11.53
2019-04-07T01:30:18.368Z,14.17
2019-04-07T01:32:45.562Z,11.27
2019-04-07T01:35:12.379Z,10.13
2019-04-07T01:37:39.575Z,11.40
2019-04-07T01:40:06.360Z,10.93
2019-04-07T01:42:33.412Z,12.13
2019-04-07T01:45:00.375Z,11.33
2019-04-07T01:47:27.679Z,11.37
2019-04-07T01:49:54.426Z,10.57
2019-04-07T01:52:21.232Z,11.60
2019-04-07T01:54:48.257Z,10.80
2019-04-07T01:57:15.589Z,9.80
2019-04-07T01:59:42.359Z,10.30
2019-04-07T02:02:09.320Z,11.87
2019-04-07T02:04:36.009Z,11.80
2019-04-07T02:07:02.907Z,10.93
2019-04-07T02:09:29.614Z,11.77
2019-04-07T02:11:56.346Z,10.17
2019-04-07T02:14:23.280Z,11.10
2019-04-07T02:16:51.147Z,10.17
2019-04-07T02:19:18.234Z,10.70
2019-04-07T02:21:45.697Z,10.10
2019-04-07T02:24:13.027Z,10.43
2019-04-07T02:26:39.835Z,10.03
2019-04-07T02:29:06.660Z,10.37
2019-04-07T02:31:33.349Z,11.63
2019-04-07T02:34:00.136Z,10.97
2019-04-07T02:36:30.693Z,11.37
2019-04-07T02:38:56.215Z,10.10
2019-04-07T02:41:23.981Z,12.03
2019-04-07T02:43:50.821Z,11.77
2019-04-07T02:46:18.265Z,11.37
2019-04-07T02:48:44.977Z,10.63
2019-04-07T02:51:11.753Z,12.60
2019-04-07T02:53:39.189Z,14.70
2019-04-07T02:56:06.588Z,13.23
2019-04-07T02:58:33.609Z,16.10
2019-04-07T03:01:00.553Z,14.13
2019-04-07T03:03:27.594Z,14.50
2019-04-07T03:05:54.433Z,13.80
2019-04-07T03:08:21.273Z,15.17
2019-04-07T03:10:48.120Z,13.63
2019-04-07T03:13:14.960Z,15.37
2019-04-07T03:15:41.805Z,13.60
2019-04-07T03:18:08.900Z,15.47
2019-04-07T03:20:36.183Z,15.10
2019-04-07T03:23:03.598Z,15.83
2019-04-07T03:25:30.574Z,15.63
2019-04-07T03:27:57.448Z,16.63
2019-04-07T03:30:27.115Z,18.00
2019-04-07T03:32:54.444Z,13.40
2019-04-07T03:35:25.201Z,13.43
2019-04-07T03:37:49.842Z,14.00
2019-04-07T03:40:16.536Z,14.10
2019-04-07T03:42:43.953Z,13.27
2019-04-07T03:45:11.270Z,14.67
2019-04-07T03:47:38.011Z,12.97
2019-04-07T03:50:04.942Z,13.70
2019-04-07T03:52:32.118Z,17.93
2019-04-07T03:54:59.886Z,13.70
2019-04-07T03:57:26.749Z,14.27
2019-04-07T03:59:53.577Z,13.73
2019-04-07T04:02:20.372Z,13.87
2019-04-07T04:04:47.085Z,12.90
2019-04-07T04:07:25.568Z,14.27
2019-04-07T04:09:44.091Z,13.93
2019-04-07T04:12:10.942Z,13.53
2019-04-07T04:14:37.876Z,15.90
2019-04-07T04:17:04.596Z,14.13
2019-04-07T04:19:31.380Z,14.53
2019-04-07T04:21:58.903Z,14.97
2019-04-07T04:24:26.582Z,16.10
2019-04-07T04:26:53.781Z,15.13
2019-04-07T04:29:23.076Z,15.57
2019-04-07T04:31:50.638Z,15.10
2019-04-07T04:34:17.433Z,15.87
2019-04-07T04:36:44.736Z,16.00
2019-04-07T04:39:12.703Z,17.43
2019-04-07T04:41:40.501Z,16.07
2019-04-07T04:44:08.722Z,15.57
2019-04-07T04:46:36.639Z,17.40
2019-04-07T04:49:04.227Z,14.00
2019-04-07T04:51:35.304Z,16.50
2019-04-07T04:53:59.382Z,16.50
2019-04-07T04:56:26.173Z,16.80
2019-04-07T04:58:53.258Z,14.80
2019-04-07T05:01:20.587Z,16.90
2019-04-07T05:03:47.521Z,15.07
2019-04-07T05:06:14.422Z,15.23
2019-04-07T05:08:41.196Z,16.33
2019-04-07T05:11:07.991Z,16.50
2019-04-07T05:13:35.019Z,16.03
2019-04-07T05:16:02.713Z,15.73
2019-04-07T05:18:30.628Z,18.47
2019-04-07T05:20:57.498Z,15.13
2019-04-07T05:23:25.147Z,18.07
2019-04-07T05:25:52.309Z,14.13
2019-04-07T05:28:20.053Z,15.83
2019-04-07T05:30:46.922Z,15.93
2019-04-07T05:33:14.124Z,15.33
2019-04-07T05:35:40.908Z,13.80
2019-04-07T05:38:08.341Z,13.83
2019-04-07T05:40:35.643Z,15.20
2019-04-07T05:43:02.395Z,16.87
2019-04-07T05:45:29.095Z,14.00
2019-04-07T05:47:55.881Z,16.07
2019-04-07T05:50:26.743Z,13.67
2019-04-07T05:52:51.494Z,14.87
2019-04-07T05:55:20.653Z,15.60
2019-04-07T05:57:46.634Z,14.27
2019-04-07T06:00:15.634Z,15.27
2019-04-07T06:02:41.799Z,15.10
2019-04-07T06:05:08.512Z,14.03
2019-04-07T06:07:36.762Z,16.47
2019-04-07T06:10:04.323Z,15.50
2019-04-07T06:12:31.623Z,16.43
2019-04-07T06:14:58.518Z,16.57
2019-04-07T06:17:26.368Z,18.63
2019-04-07T06:19:53.736Z,14.23
2019-04-07T06:22:21.024Z,14.73
2019-04-07T06:24:48.765Z,16.43
2019-04-07T06:27:16.995Z,14.87
2019-04-07T06:29:44.613Z,13.63
2019-04-07T06:32:11.505Z,15.90
2019-04-07T06:34:41.108Z,17.63
2019-04-07T06:37:06.846Z,16.93
2019-04-07T06:39:34.034Z,16.23
2019-04-07T06:42:01.527Z,17.00
2019-04-07T06:44:29.155Z,15.13
2019-04-07T06:46:59.192Z,15.77
2019-04-07T06:49:27.532Z,15.47
2019-04-07T06:51:52.835Z,16.80
2019-04-07T06:54:22.138Z,14.30
2019-04-07T06:56:47.936Z,17.20
2019-04-07T06:59:15.556Z,15.60
2019-04-07T07:01:42.798Z,16.03
2019-04-07T07:04:12.781Z,16.83
2019-04-07T07:06:38.546Z,15.13
2019-04-07T07:09:06.159Z,17.23
2019-04-07T07:11:34.766Z,14.63
2019-04-07T07:14:02.081Z,14.30
2019-04-07T07:16:29.824Z,16.93
2019-04-07T07:18:56.874Z,15.40
2019-04-07T07:21:24.630Z,16.50
2019-04-07T07:23:51.481Z,15.13
2019-04-07T07:26:21.257Z,16.50
2019-04-07T07:28:46.965Z,14.80
2019-04-07T07:31:14.330Z,14.47
2019-04-07T07:33:43.561Z,16.33
2019-04-07T07:36:10.150Z,14.73
2019-04-07T07:38:36.935Z,17.20
2019-04-07T07:41:04.661Z,16.77
2019-04-07T07:43:31.899Z,15.80
2019-04-07T07:45:59.071Z,16.90
2019-04-07T07:48:27.312Z,18.00
2019-04-07T07:50:54.668Z,17.13
2019-04-07T07:53:23.682Z,17.13
2019-04-07T07:55:50.017Z,17.27
2019-04-07T07:58:16.750Z,16.53
2019-04-07T08:00:43.597Z,17.60
2019-04-07T08:03:10.337Z,18.50
2019-04-07T08:05:37.607Z,16.67
2019-04-07T08:08:04.788Z,17.47
2019-04-07T08:10:31.565Z,19.50
2019-04-07T08:12:58.572Z,20.80
2019-04-07T08:15:29.173Z,20.73
2019-04-07T08:17:53.777Z,18.07
2019-04-07T08:20:20.505Z,19.43
2019-04-07T08:22:48.074Z,19.43
2019-04-07T08:25:15.342Z,18.93
2019-04-07T08:27:42.081Z,20.97
2019-04-07T08:30:11.962Z,18.97
2019-04-07T08:32:37.244Z,21.50
2019-04-07T08:35:05.552Z,18.17
2019-04-07T08:37:32.575Z,19.77
2019-04-07T08:39:59.478Z,19.07
2019-04-07T08:42:26.986Z,19.47
2019-04-07T08:44:57.188Z,19.17
2019-04-07T08:47:23.325Z,19.90
2019-04-07T08:49:50.660Z,18.07
2019-04-07T08:52:18.526Z,17.73
2019-04-07T08:54:48.294Z,17.77
2019-04-07T08:57:14.118Z,18.30
2019-04-07T08:59:42.758Z,19.27
2019-04-07T09:02:09.284Z,19.27
2019-04-07T09:04:36.633Z,17.93
2019-04-07T09:07:04.367Z,21.37
2019-04-07T09:09:35.996Z,23.63
2019-04-07T09:12:00.433Z,20.03
2019-04-07T09:14:27.309Z,20.30
2019-04-07T09:16:56.089Z,23.13
2019-04-07T09:19:22.522Z,22.40
2019-04-07T09:21:51.433Z,23.07
2019-04-07T09:24:17.729Z,22.47
2019-04-07T09:26:44.576Z,23.73
2019-04-07T09:29:11.657Z,22.10
2019-04-07T09:31:38.374Z,23.30
2019-04-07T09:34:05.227Z,23.77
2019-04-07T09:36:33.446Z,26.07
2019-04-07T09:39:02.629Z,26.47
2019-04-07T09:41:29.732Z,25.53
2019-04-07T09:43:57.160Z,22.47
2019-04-07T09:46:24.197Z,25.23
2019-04-07T09:48:52.828Z,23.17
2019-04-07T09:51:19.746Z,24.57
2019-04-07T09:53:48.773Z,26.80
2019-04-07T09:56:14.869Z,23.67
2019-04-07T09:58:43.611Z,24.40
2019-04-07T10:01:10.045Z,25.80
2019-04-07T10:03:38.132Z,24.60
2019-04-07T10:06:05.375Z,24.43
2019-04-07T10:08:32.693Z,25.33
2019-04-07T10:10:59.456Z,26.02
2019-04-07T10:13:26.391Z,25.37
2019-04-07T10:15:53.272Z,25.70
2019-04-07T10:18:20.509Z,24.12
2019-04-07T10:20:47.506Z,25.12
2019-04-07T10:23:14.207Z,22.60
2019-04-07T10:25:40.947Z,23.52
2019-04-07T10:28:12.363Z,21.15
2019-04-07T10:30:39.221Z,20.90
2019-04-07T10:33:06.759Z,23.52
2019-04-07T10:35:36.385Z,22.45
2019-04-07T10:38:03.942Z,20.50
2019-04-07T10:40:31.129Z,21.50
2019-04-07T10:42:58.441Z,21.07
2019-04-07T10:45:26.164Z,20.48
2019-04-07T10:47:53.564Z,22.25
2019-04-07T10:50:21.071Z,20.75
2019-04-07T10:52:47.897Z,21.10
2019-04-07T10:55:15.232Z,22.02
2019-04-07T10:57:42.461Z,23.40
2019-04-07T11:00:09.240Z,22.42
2019-04-07T11:02:36.154Z,22.60
2019-04-07T11:05:03.010Z,22.02
2019-04-07T11:07:29.698Z,21.37
2019-04-07T11:09:56.466Z,24.25
2019-04-07T11:12:23.294Z,20.43
2019-04-07T11:14:50.155Z,20.15
2019-04-07T11:17:16.913Z,21.95
2019-04-07T11:19:44.473Z,22.60
2019-04-07T11:22:11.224Z,25.12
2019-04-07T11:24:38.090Z,28.32
2019-04-07T11:27:05.238Z,27.52
2019-04-07T11:29:32.599Z,26.20
2019-04-07T11:31:59.383Z,28.63
2019-04-07T11:34:27.049Z,22.30
2019-04-07T11:36:54.504Z,23.43
2019-04-07T11:39:21.288Z,23.63
2019-04-07T11:41:48.263Z,23.47
2019-04-07T11:44:15.052Z,23.70
2019-04-07T11:46:42.103Z,26.17
2019-04-07T11:49:10.769Z,21.57
2019-04-07T11:51:37.920Z,21.03
2019-04-07T11:54:05.192Z,23.80
2019-04-07T11:56:32.141Z,22.67
2019-04-07T11:58:59.088Z,20.63
2019-04-07T12:01:26.100Z,21.68
2019-04-07T12:03:54.549Z,21.50
2019-04-07T12:06:24.309Z,22.05
2019-04-07T12:08:50.044Z,20.62
2019-04-07T12:11:17.044Z,20.97
2019-04-07T12:13:44.922Z,21.30
2019-04-07T12:16:11.702Z,21.48
2019-04-07T12:18:38.686Z,21.75
2019-04-07T12:21:07.508Z,21.35
2019-04-07T12:23:34.001Z,21.82
2019-04-07T12:26:04.268Z,19.95
2019-04-07T12:28:30.102Z,21.33
2019-04-07T12:30:56.840Z,21.02
2019-04-07T12:33:23.764Z,20.02
2019-04-07T12:35:53.474Z,18.25
2019-04-07T12:38:19.373Z,16.52
2019-04-07T12:40:46.239Z,15.88
2019-04-07T12:43:14.135Z,18.07
2019-04-07T12:45:41.654Z,17.17
2019-04-07T12:48:09.177Z,17.35
2019-04-07T12:50:35.927Z,16.62
2019-04-07T12:53:03.995Z,15.88
2019-04-07T12:55:31.524Z,16.42
2019-04-07T12:57:58.232Z,18.20
2019-04-07T13:00:25.180Z,16.70
2019-04-07T13:02:54.385Z,16.95
2019-04-07T13:05:21.331Z,18.27
2019-04-07T13:07:51.017Z,17.23
2019-04-07T13:10:16.574Z,16.37
2019-04-07T13:12:43.353Z,16.70
2019-04-07T13:15:11.883Z,16.77
2019-04-07T13:17:38.463Z,15.38
2019-04-07T13:20:05.200Z,16.07
2019-04-07T13:22:34.406Z,15.25
2019-04-07T13:25:01.766Z,15.45
2019-04-07T13:27:29.731Z,14.93
2019-04-07T13:29:56.490Z,15.15
2019-04-07T13:32:23.866Z,14.53
2019-04-07T13:34:51.361Z,14.80
2019-04-07T13:37:18.757Z,14.93
2019-04-07T13:39:46.404Z,14.25
2019-04-07T13:42:14.255Z,14.18
2019-04-07T13:44:41.646Z,15.58
2019-04-07T13:47:09.418Z,16.32
2019-04-07T13:49:37.236Z,14.98
2019-04-07T13:52:05.308Z,14.28
2019-04-07T13:54:32.950Z,14.50
2019-04-07T13:57:00.586Z,13.48
2019-04-07T13:59:27.330Z,14.25
2019-04-07T14:01:55.575Z,13.45
2019-04-07T14:04:22.798Z,14.47
2019-04-07T14:06:49.516Z,14.23
2019-04-07T14:09:16.992Z,14.28
2019-04-07T14:11:56.574Z,14.78
2019-04-07T14:14:12.280Z,14.90
2019-04-07T14:16:39.032Z,16.02
2019-04-07T14:19:06.637Z,15.70
2019-04-07T14:21:33.902Z,14.35
2019-04-07T14:24:01.541Z,13.55
2019-04-07T14:26:29.163Z,12.58
2019-04-07T14:28:56.541Z,10.32
2019-04-07T14:31:23.374Z,11.18
2019-04-07T14:33:50.115Z,9.60
2019-04-07T14:36:17.234Z,11.45
2019-04-07T14:38:44.347Z,11.03
2019-04-07T14:41:11.715Z,9.63
2019-04-07T14:43:39.195Z,11.38
2019-04-07T14:46:06.359Z,10.50
2019-04-07T14:48:33.713Z,10.48
2019-04-07T14:51:01.181Z,11.93
2019-04-07T14:53:28.653Z,11.35
2019-04-07T14:55:56.006Z,9.88
2019-04-07T14:58:22.801Z,9.88
2019-04-07T15:00:50.810Z,9.75
2019-04-07T15:03:17.547Z,8.73
2019-04-07T15:05:45.011Z,8.80
2019-04-07T15:08:11.871Z,8.58
2019-04-07T15:10:38.592Z,10.45
2019-04-07T15:13:05.394Z,8.75
2019-04-07T15:15:32.468Z,9.05
2019-04-07T15:17:59.848Z,8.95
2019-04-07T15:20:27.034Z,9.58
2019-04-07T15:22:53.974Z,9.83
2019-04-07T15:25:21.369Z,9.05
2019-04-07T15:27:48.214Z,9.03
2019-04-07T15:30:16.731Z,8.78
2019-04-07T15:32:43.887Z,11.00
2019-04-07T15:35:12.360Z,9.88
2019-04-07T15:37:40.482Z,9.53
2019-04-07T15:40:08.319Z,10.25
2019-04-07T15:42:41.885Z,9.90
2019-04-07T15:45:04.902Z,9.85
2019-04-07T15:47:31.698Z,10.08
2019-04-07T15:49:59.474Z,9.33
2019-04-07T15:52:26.399Z,9.73
2019-04-07T15:54:54.485Z,9.40
2019-04-07T15:57:22.096Z,8.60
2019-04-07T15:59:49.699Z,9.43
2019-04-07T16:02:17.045Z,8.57
2019-04-07T16:04:44.064Z,9.50
2019-04-07T16:07:12.040Z,8.53
2019-04-07T16:09:49.221Z,9.27
2019-04-07T16:12:08.020Z,9.07
2019-04-07T16:14:35.185Z,9.67
2019-04-07T16:17:04.095Z,9.23
2019-04-07T16:19:40.024Z,8.33
2019-04-07T16:21:58.679Z,8.60
2019-04-07T16:24:25.792Z,9.63
2019-04-07T16:26:52.720Z,10.37
2019-04-07T16:29:20.347Z,9.43
2019-04-07T16:31:47.852Z,9.80
2019-04-07T16:34:15.365Z,10.87
2019-04-07T16:36:42.149Z,9.00
2019-04-07T16:39:09.617Z,9.10
2019-04-07T16:41:36.394Z,10.03
2019-04-07T16:44:06.995Z,8.40
2019-04-07T16:46:32.055Z,9.33
2019-04-07T16:48:59.720Z,11.90
2019-04-07T16:51:30.013Z,9.77
2019-04-07T16:53:55.242Z,8.53
2019-04-07T16:56:22.340Z,10.60
2019-04-07T16:58:50.228Z,10.17
2019-04-07T17:01:18.544Z,9.77
2019-04-07T17:03:45.325Z,10.50
2019-04-07T17:06:12.422Z,10.50
2019-04-07T17:08:40.176Z,10.23
2019-04-07T17:11:08.070Z,11.70
2019-04-07T17:13:39.976Z,13.10
2019-04-07T17:16:03.271Z,10.47
2019-04-07T17:18:30.103Z,13.00
2019-04-07T17:20:58.903Z,9.57
2019-04-07T17:23:26.107Z,11.67
2019-04-07T17:25:53.024Z,10.00
2019-04-07T17:28:19.836Z,12.77
2019-04-07T17:30:47.564Z,11.90
2019-04-07T17:33:14.400Z,10.60
2019-04-07T17:35:43.214Z,12.20
2019-04-07T17:38:09.562Z,10.07
2019-04-07T17:40:36.451Z,10.83
2019-04-07T17:43:03.306Z,10.70
2019-04-07T17:45:30.821Z,10.23
2019-04-07T17:48:00.330Z,11.20
2019-04-07T17:50:29.472Z,10.83
2019-04-07T17:52:54.502Z,11.43
2019-04-07T17:55:21.909Z,9.87
2019-04-07T17:57:49.817Z,11.23
2019-04-07T18:00:18.444Z,10.63
2019-04-07T18:02:53.938Z,10.07
2019-04-07T18:05:14.799Z,10.17
2019-04-07T18:07:43.502Z,11.70
2019-04-07T18:10:10.065Z,10.47
2019-04-07T18:12:39.026Z,11.13
2019-04-07T18:15:09.980Z,8.57
2019-04-07T18:17:34.272Z,11.00
2019-04-07T18:20:06.491Z,11.57
2019-04-07T18:22:31.544Z,12.03
2019-04-07T18:25:02.111Z,9.97
2019-04-07T18:27:27.227Z,10.93
2019-04-07T18:29:55.033Z,11.77
2019-04-07T18:32:23.114Z,13.43
2019-04-07T18:34:50.452Z,10.97
2019-04-07T18:37:18.443Z,13.03
2019-04-07T18:39:52.343Z,12.37
2019-04-07T18:42:17.771Z,11.80
2019-04-07T18:44:43.127Z,15.23
2019-04-07T18:47:10.103Z,11.67
2019-04-07T18:49:37.591Z,13.07
2019-04-07T18:52:04.303Z,12.33
2019-04-07T18:54:32.373Z,14.03
2019-04-07T18:57:00.147Z,13.13
2019-04-07T18:59:26.985Z,14.50
2019-04-07T19:01:53.698Z,13.80
2019-04-07T19:04:24.213Z,15.07
2019-04-07T19:06:49.735Z,15.43
2019-04-07T19:09:17.753Z,16.83
2019-04-07T19:11:47.208Z,15.57
2019-04-07T19:14:30.792Z,14.63
2019-04-07T19:16:41.849Z,16.47
2019-04-07T19:19:08.644Z,15.37
2019-04-07T19:21:38.256Z,14.33
2019-04-07T19:24:04.493Z,15.13
2019-04-07T19:26:31.555Z,15.37
2019-04-07T19:28:58.326Z,15.97
2019-04-07T19:31:25.760Z,16.13
2019-04-07T19:33:55.961Z,18.10
2019-04-07T19:36:21.382Z,18.93
2019-04-07T19:38:49.663Z,19.77
2019-04-07T19:41:16.770Z,19.60
2019-04-07T19:43:44.611Z,19.93
2019-04-07T19:46:11.422Z,15.67
2019-04-07T19:48:40.614Z,21.77
2019-04-07T19:51:06.824Z,21.77
2019-04-07T19:53:34.503Z,22.97
2019-04-07T19:56:02.419Z,22.80
2019-04-07T19:58:32.722Z,23.07
2019-04-07T20:01:00.143Z,22.10
2019-04-07T20:03:26.387Z,23.20
2019-04-07T20:05:53.465Z,22.47
2019-04-07T20:08:20.783Z,22.63
2019-04-07T20:10:49.875Z,23.10
2019-04-07T20:13:16.197Z,22.33
2019-04-07T20:15:43.168Z,21.00
2019-04-07T20:18:10.442Z,23.47
2019-04-07T20:20:38.473Z,24.03
2019-04-07T20:23:06.407Z,21.40
2019-04-07T20:25:33.341Z,21.70
2019-04-07T20:28:00.657Z,24.33
2019-04-07T20:30:29.407Z,22.20
2019-04-07T20:32:56.745Z,22.37
2019-04-07T20:35:26.182Z,22.50
2019-04-07T20:37:55.017Z,23.07
2019-04-07T20:40:22.236Z,20.57
2019-04-07T20:42:51.660Z,28.17
2019-04-07T20:45:20.608Z,30.07
2019-04-07T20:47:46.614Z,28.80
2019-04-07T20:50:14.326Z,29.30
2019-04-07T20:52:42.582Z,25.57
2019-04-07T20:55:09.898Z,27.20
2019-04-07T20:57:37.038Z,26.03
2019-04-07T21:00:05.532Z,25.70
2019-04-07T21:02:34.913Z,26.23
2019-04-07T21:05:01.349Z,28.07
2019-04-07T21:07:29.862Z,26.27
2019-04-07T21:09:57.310Z,24.90
2019-04-07T21:12:25.036Z,24.20
2019-04-07T21:14:52.539Z,23.27
2019-04-07T21:17:20.304Z,24.80
2019-04-07T21:19:47.589Z,24.30
2019-04-07T21:22:15.686Z,21.43
2019-04-07T21:24:44.221Z,25.27
2019-04-07T21:27:12.163Z,23.73
2019-04-07T21:29:43.466Z,27.67
2019-04-07T21:32:09.922Z,26.00
2019-04-07T21:34:38.497Z,27.00
2019-04-07T21:37:10.317Z,27.10
2019-04-07T21:39:36.364Z,25.93
2019-04-07T21:42:05.769Z,28.87
2019-04-07T21:44:33.762Z,27.30
2019-04-07T21:47:00.969Z,25.70
2019-04-07T21:49:27.959Z,25.07
2019-04-07T21:51:55.459Z,21.03
2019-04-07T21:54:22.617Z,26.17
2019-04-07T21:56:49.441Z,26.27
2019-04-07T21:59:18.730Z,23.00
2019-04-07T22:01:47.509Z,25.50
2019-04-07T22:04:16.008Z,26.40
2019-04-07T22:06:42.667Z,23.03
2019-04-07T22:09:10.521Z,23.53
2019-04-07T22:11:38.079Z,21.60
2019-04-07T22:14:07.327Z,24.63
2019-04-07T22:16:35.804Z,24.67
2019-04-07T22:19:10.256Z,22.70
2019-04-07T22:21:36.143Z,22.80
2019-04-07T22:24:05.456Z,20.73
2019-04-07T22:26:34.922Z,20.43
2019-04-07T22:29:04.406Z,21.13
2019-04-07T22:31:33.235Z,22.90
2019-04-07T22:34:02.364Z,21.40
2019-04-07T22:36:31.491Z,23.53
2019-04-07T22:39:01.278Z,16.70
2019-04-07T22:41:28.949Z,21.27
2019-04-07T22:43:57.403Z,21.20
2019-04-07T22:46:27.325Z,21.03
2019-04-07T22:48:57.595Z,21.37
2019-04-07T22:51:23.231Z,19.10
2019-04-07T22:53:52.284Z,20.73
2019-04-07T22:56:18.503Z,21.67
2019-04-07T22:58:45.211Z,21.03
2019-04-07T23:01:12.144Z,21.60
2019-04-07T23:03:39.142Z,20.90
2019-04-07T23:06:05.851Z,21.03
2019-04-07T23:08:32.833Z,24.03
2019-04-07T23:11:00.091Z,23.67
2019-04-07T23:13:26.848Z,25.30
2019-04-07T23:16:06.696Z,20.90
2019-04-07T23:18:22.149Z,21.83
2019-04-07T23:20:48.847Z,24.13
2019-04-07T23:23:16.452Z,23.93
2019-04-07T23:25:44.033Z,21.80
2019-04-07T23:28:10.802Z,23.33
2019-04-07T23:30:37.576Z,23.67
2019-04-07T23:33:04.399Z,22.40
2019-04-07T23:35:31.127Z,24.27
2019-04-07T23:37:57.918Z,23.37
2019-04-07T23:40:24.637Z,23.83
2019-04-07T23:42:51.363Z,22.50
2019-04-07T23:45:18.599Z,24.03
2019-04-07T23:47:45.250Z,25.70
2019-04-07T23:50:11.982Z,26.20
2019-04-07T23:52:39.137Z,22.50
2019-04-07T23:55:06.496Z,27.57
2019-04-07T23:57:33.293Z,25.13
